sensor_id;sensor_type;location;lat;lon;timestamp;temperature;humidity
12130;DHT22;6128;59.340;18.040;2024-03-17T00:01:42;0.40;99.90
12130;DHT22;6128;59.340;18.040;2024-03-17T00:04:09;0.30;99.90
12130;DHT22;6128;59.340;18.040;2024-03-17T00:06:37;0.30;99.90
12130;DHT22;6128;59.340;18.040;2024-03-17T00:09:03;0.20;99.90
12130;DHT22;6128;59.340;18.040;2024-03-17T00:11:32;0.20;99.90
12130;DHT22;6128;59.340;18.040;2024-03-17T00:13:58;0.30;99.90
12130;DHT22;6128;59.340;18.040;2024-03-17T00:16:25;0.30;99.90
12130;DHT22;6128;59.340;18.040;2024-03-17T00:18:51;0.20;99.90
12130;DHT22;6128;59.340;18.040;2024-03-17T00:21:18;0.30;99.90
12130;DHT22;6128;59.340;18.040;2024-03-17T00:23:47;0.20;99.90
12130;DHT22;6128;59.340;18.040;2024-03-17T00:26:15;0.20;99.90
12130;DHT22;6128;59.340;18.040;2024-03-17T00:28:41;0.10;99.90
12130;DHT22;6128;59.340;18.040;2024-03-17T00:31:12;0.10;99.90
12130;DHT22;6128;59.340;18.040;2024-03-17T00:33:40;0.00;99.90
12130;DHT22;6128;59.340;18.040;2024-03-17T00:36:10;0.00;99.90
12130;DHT22;6128;59.340;18.040;2024-03-17T00:38:36;0.10;99.90
12130;DHT22;6128;59.340;18.040;2024-03-17T00:41:05;0.00;99.90
12130;DHT22;6128;59.340;18.040;2024-03-17T00:43:32;0.00;99.90
12130;DHT22;6128;59.340;18.040;2024-03-17T00:45:59;0.10;99.90
12130;DHT22;6128;59.340;18.040;2024-03-17T00:48:25;0.10;99.90
12130;DHT22;6128;59.340;18.040;2024-03-17T00:50:55;0.00;99.90
12130;DHT22;6128;59.340;18.040;2024-03-17T00:53:22;0.00;99.90
12130;DHT22;6128;59.340;18.040;2024-03-17T00:55:52;-0.10;99.90
12130;DHT22;6128;59.340;18.040;2024-03-17T00:58:20;-0.10;99.90
12130;DHT22;6128;59.340;18.040;2024-03-17T01:00:47;-0.10;99.90
12130;DHT22;6128;59.340;18.040;2024-03-17T01:03:14;-0.10;99.90
12130;DHT22;6128;59.340;18.040;2024-03-17T01:05:41;-0.10;99.90
12130;DHT22;6128;59.340;18.040;2024-03-17T01:08:08;-0.10;99.90
12130;DHT22;6128;59.340;18.040;2024-03-17T01:10:37;-0.10;99.90
12130;DHT22;6128;59.340;18.040;2024-03-17T01:13:05;-0.10;99.90
12130;DHT22;6128;59.340;18.040;2024-03-17T01:15:35;-0.10;99.90
12130;DHT22;6128;59.340;18.040;2024-03-17T01:18:01;-0.10;99.90
12130;DHT22;6128;59.340;18.040;2024-03-17T01:20:28;0.00;99.90
12130;DHT22;6128;59.340;18.040;2024-03-17T01:22:54;-0.10;99.90
12130;DHT22;6128;59.340;18.040;2024-03-17T01:25:21;-0.10;99.90
12130;DHT22;6128;59.340;18.040;2024-03-17T01:30:14;-0.50;99.90
12130;DHT22;6128;59.340;18.040;2024-03-17T01:32:42;-0.30;99.90
12130;DHT22;6128;59.340;18.040;2024-03-17T01:35:09;-0.40;99.90
12130;DHT22;6128;59.340;18.040;2024-03-17T01:37:35;-0.40;99.90
12130;DHT22;6128;59.340;18.040;2024-03-17T01:40:02;-0.40;99.90
12130;DHT22;6128;59.340;18.040;2024-03-17T01:42:33;-0.20;99.90
12130;DHT22;6128;59.340;18.040;2024-03-17T01:45:01;-0.30;99.90
12130;DHT22;6128;59.340;18.040;2024-03-17T01:47:27;-0.30;99.90
12130;DHT22;6128;59.340;18.040;2024-03-17T01:49:55;-0.20;99.90
12130;DHT22;6128;59.340;18.040;2024-03-17T01:52:21;-0.10;99.90
12130;DHT22;6128;59.340;18.040;2024-03-17T01:54:49;-0.20;99.90
12130;DHT22;6128;59.340;18.040;2024-03-17T01:57:15;-0.20;99.90
12130;DHT22;6128;59.340;18.040;2024-03-17T01:59:44;-0.30;99.90
12130;DHT22;6128;59.340;18.040;2024-03-17T02:02:10;-0.20;99.90
12130;DHT22;6128;59.340;18.040;2024-03-17T02:04:38;-0.40;99.90
12130;DHT22;6128;59.340;18.040;2024-03-17T02:07:05;-0.40;99.90
12130;DHT22;6128;59.340;18.040;2024-03-17T02:09:32;-0.30;99.90
12130;DHT22;6128;59.340;18.040;2024-03-17T02:11:58;-0.30;99.90
12130;DHT22;6128;59.340;18.040;2024-03-17T02:14:25;-0.30;99.90
12130;DHT22;6128;59.340;18.040;2024-03-17T02:16:52;-0.30;99.90
12130;DHT22;6128;59.340;18.040;2024-03-17T02:19:19;-0.30;99.90
12130;DHT22;6128;59.340;18.040;2024-03-17T02:21:45;-0.40;99.90
12130;DHT22;6128;59.340;18.040;2024-03-17T02:24:14;-0.10;99.90
12130;DHT22;6128;59.340;18.040;2024-03-17T02:26:40;-0.40;99.90
12130;DHT22;6128;59.340;18.040;2024-03-17T02:29:07;-0.20;99.90
12130;DHT22;6128;59.340;18.040;2024-03-17T02:31:33;-0.40;99.90
12130;DHT22;6128;59.340;18.040;2024-03-17T02:34:00;-0.20;99.90
12130;DHT22;6128;59.340;18.040;2024-03-17T02:36:26;-0.30;99.90
12130;DHT22;6128;59.340;18.040;2024-03-17T02:38:53;-0.20;99.90
12130;DHT22;6128;59.340;18.040;2024-03-17T02:41:42;-0.30;99.90
12130;DHT22;6128;59.340;18.040;2024-03-17T02:44:09;-0.20;99.90
12130;DHT22;6128;59.340;18.040;2024-03-17T02:46:36;-0.40;99.90
12130;DHT22;6128;59.340;18.040;2024-03-17T02:49:03;-0.30;99.90
12130;DHT22;6128;59.340;18.040;2024-03-17T02:51:30;-0.40;99.90
12130;DHT22;6128;59.340;18.040;2024-03-17T02:53:56;-0.30;99.90
12130;DHT22;6128;59.340;18.040;2024-03-17T02:56:25;-0.70;99.90
12130;DHT22;6128;59.340;18.040;2024-03-17T02:58:53;-0.40;99.90
12130;DHT22;6128;59.340;18.040;2024-03-17T03:01:20;-0.40;99.90
12130;DHT22;6128;59.340;18.040;2024-03-17T03:03:47;-0.40;99.90
12130;DHT22;6128;59.340;18.040;2024-03-17T03:06:15;-0.30;99.90
12130;DHT22;6128;59.340;18.040;2024-03-17T03:08:45;-0.30;99.90
12130;DHT22;6128;59.340;18.040;2024-03-17T03:11:15;-0.30;99.90
12130;DHT22;6128;59.340;18.040;2024-03-17T03:13:43;-0.30;99.90
12130;DHT22;6128;59.340;18.040;2024-03-17T03:16:13;-0.30;99.90
12130;DHT22;6128;59.340;18.040;2024-03-17T03:18:41;-0.50;99.90
12130;DHT22;6128;59.340;18.040;2024-03-17T03:21:10;-0.30;99.90
12130;DHT22;6128;59.340;18.040;2024-03-17T03:23:37;-0.40;99.90
12130;DHT22;6128;59.340;18.040;2024-03-17T03:26:04;-0.50;99.90
12130;DHT22;6128;59.340;18.040;2024-03-17T03:28:35;-0.50;99.90
12130;DHT22;6128;59.340;18.040;2024-03-17T03:31:02;-0.50;99.90
12130;DHT22;6128;59.340;18.040;2024-03-17T03:33:31;-0.60;99.90
12130;DHT22;6128;59.340;18.040;2024-03-17T03:35:58;-0.50;99.90
12130;DHT22;6128;59.340;18.040;2024-03-17T03:38:25;-0.50;99.90
12130;DHT22;6128;59.340;18.040;2024-03-17T03:40:52;-0.60;99.90
12130;DHT22;6128;59.340;18.040;2024-03-17T03:43:19;-0.50;99.90
12130;DHT22;6128;59.340;18.040;2024-03-17T03:45:46;-0.50;99.90
12130;DHT22;6128;59.340;18.040;2024-03-17T03:48:13;-0.50;99.90
12130;DHT22;6128;59.340;18.040;2024-03-17T03:50:42;-0.60;99.90
12130;DHT22;6128;59.340;18.040;2024-03-17T03:53:09;-0.60;99.90
12130;DHT22;6128;59.340;18.040;2024-03-17T03:55:37;-0.60;99.90
12130;DHT22;6128;59.340;18.040;2024-03-17T03:58:04;-0.60;99.90
12130;DHT22;6128;59.340;18.040;2024-03-17T04:00:34;-0.60;99.90
12130;DHT22;6128;59.340;18.040;2024-03-17T04:03:05;-0.70;99.90
12130;DHT22;6128;59.340;18.040;2024-03-17T04:05:32;-0.70;99.90
12130;DHT22;6128;59.340;18.040;2024-03-17T04:08:01;-0.60;99.90
12130;DHT22;6128;59.340;18.040;2024-03-17T04:10:28;-0.60;99.90
12130;DHT22;6128;59.340;18.040;2024-03-17T04:12:55;-0.70;99.90
12130;DHT22;6128;59.340;18.040;2024-03-17T04:15:23;-0.80;99.90
12130;DHT22;6128;59.340;18.040;2024-03-17T04:17:50;-0.70;99.90
12130;DHT22;6128;59.340;18.040;2024-03-17T04:20:18;-0.90;99.90
12130;DHT22;6128;59.340;18.040;2024-03-17T04:22:45;-0.80;99.90
12130;DHT22;6128;59.340;18.040;2024-03-17T04:25:15;-0.80;99.90
12130;DHT22;6128;59.340;18.040;2024-03-17T04:27:42;-0.80;99.90
12130;DHT22;6128;59.340;18.040;2024-03-17T04:30:09;-0.80;99.90
12130;DHT22;6128;59.340;18.040;2024-03-17T04:32:37;-0.80;99.90
12130;DHT22;6128;59.340;18.040;2024-03-17T04:35:04;-0.90;99.90
12130;DHT22;6128;59.340;18.040;2024-03-17T04:37:32;-0.80;99.90
12130;DHT22;6128;59.340;18.040;2024-03-17T04:40:05;-0.80;99.90
12130;DHT22;6128;59.340;18.040;2024-03-17T04:42:36;-0.80;99.90
12130;DHT22;6128;59.340;18.040;2024-03-17T04:45:07;-0.90;99.90
12130;DHT22;6128;59.340;18.040;2024-03-17T04:47:36;-0.80;99.90
12130;DHT22;6128;59.340;18.040;2024-03-17T04:50:04;-0.80;99.90
12130;DHT22;6128;59.340;18.040;2024-03-17T04:52:31;-0.80;99.90
12130;DHT22;6128;59.340;18.040;2024-03-17T04:54:58;-0.80;99.90
12130;DHT22;6128;59.340;18.040;2024-03-17T04:57:25;-0.80;99.90
12130;DHT22;6128;59.340;18.040;2024-03-17T04:59:54;-0.70;99.90
12130;DHT22;6128;59.340;18.040;2024-03-17T05:02:21;-0.60;99.90
12130;DHT22;6128;59.340;18.040;2024-03-17T05:04:48;-0.60;99.90
12130;DHT22;6128;59.340;18.040;2024-03-17T05:07:15;-0.60;99.90
12130;DHT22;6128;59.340;18.040;2024-03-17T05:09:43;-0.50;99.90
12130;DHT22;6128;59.340;18.040;2024-03-17T05:12:11;-0.40;99.90
12130;DHT22;6128;59.340;18.040;2024-03-17T05:14:38;-0.40;99.90
12130;DHT22;6128;59.340;18.040;2024-03-17T05:17:06;-0.40;99.90
12130;DHT22;6128;59.340;18.040;2024-03-17T05:19:34;-0.30;99.90
12130;DHT22;6128;59.340;18.040;2024-03-17T05:22:01;-0.40;99.90
12130;DHT22;6128;59.340;18.040;2024-03-17T05:24:28;-0.40;99.90
12130;DHT22;6128;59.340;18.040;2024-03-17T05:26:55;-0.30;99.90
12130;DHT22;6128;59.340;18.040;2024-03-17T05:29:22;-0.40;99.90
12130;DHT22;6128;59.340;18.040;2024-03-17T05:31:49;-0.40;99.90
12130;DHT22;6128;59.340;18.040;2024-03-17T05:34:18;-0.40;99.90
12130;DHT22;6128;59.340;18.040;2024-03-17T05:36:45;-0.30;99.90
12130;DHT22;6128;59.340;18.040;2024-03-17T05:39:12;-0.30;99.90
12130;DHT22;6128;59.340;18.040;2024-03-17T05:41:39;-0.30;99.90
12130;DHT22;6128;59.340;18.040;2024-03-17T05:44:09;-0.30;99.90
12130;DHT22;6128;59.340;18.040;2024-03-17T05:46:36;-0.30;99.90
12130;DHT22;6128;59.340;18.040;2024-03-17T05:49:03;-0.30;99.90
12130;DHT22;6128;59.340;18.040;2024-03-17T05:51:32;-0.40;99.90
12130;DHT22;6128;59.340;18.040;2024-03-17T05:53:59;-0.40;99.90
12130;DHT22;6128;59.340;18.040;2024-03-17T05:56:26;-0.40;99.90
12130;DHT22;6128;59.340;18.040;2024-03-17T05:58:53;-0.40;99.90
12130;DHT22;6128;59.340;18.040;2024-03-17T06:01:20;-0.40;99.90
12130;DHT22;6128;59.340;18.040;2024-03-17T06:03:48;-0.40;99.90
12130;DHT22;6128;59.340;18.040;2024-03-17T06:06:15;-0.40;99.90
12130;DHT22;6128;59.340;18.040;2024-03-17T06:08:44;-0.40;99.90
12130;DHT22;6128;59.340;18.040;2024-03-17T06:11:11;-0.40;99.90
12130;DHT22;6128;59.340;18.040;2024-03-17T06:13:39;-0.40;99.90
12130;DHT22;6128;59.340;18.040;2024-03-17T06:16:06;-0.40;99.90
12130;DHT22;6128;59.340;18.040;2024-03-17T06:18:33;-0.40;99.90
12130;DHT22;6128;59.340;18.040;2024-03-17T06:21:00;-0.40;99.90
12130;DHT22;6128;59.340;18.040;2024-03-17T06:23:27;-0.40;99.90
12130;DHT22;6128;59.340;18.040;2024-03-17T06:25:56;-0.40;99.90
12130;DHT22;6128;59.340;18.040;2024-03-17T06:28:23;-0.30;99.90
12130;DHT22;6128;59.340;18.040;2024-03-17T06:30:56;-0.30;99.90
12130;DHT22;6128;59.340;18.040;2024-03-17T06:33:25;-0.30;99.90
12130;DHT22;6128;59.340;18.040;2024-03-17T06:35:54;-0.40;99.90
12130;DHT22;6128;59.340;18.040;2024-03-17T06:38:22;-0.40;99.90
12130;DHT22;6128;59.340;18.040;2024-03-17T06:40:50;-0.40;99.90
12130;DHT22;6128;59.340;18.040;2024-03-17T06:43:19;-0.30;99.90
12130;DHT22;6128;59.340;18.040;2024-03-17T06:45:56;-0.20;99.90
12130;DHT22;6128;59.340;18.040;2024-03-17T06:48:23;-0.20;99.90
12130;DHT22;6128;59.340;18.040;2024-03-17T06:50:50;0.00;99.90
12130;DHT22;6128;59.340;18.040;2024-03-17T06:53:20;0.00;99.90
12130;DHT22;6128;59.340;18.040;2024-03-17T06:55:52;0.00;99.90
12130;DHT22;6128;59.340;18.040;2024-03-17T06:58:21;0.10;99.90
12130;DHT22;6128;59.340;18.040;2024-03-17T07:00:56;0.00;99.90
12130;DHT22;6128;59.340;18.040;2024-03-17T07:03:24;0.00;99.90
12130;DHT22;6128;59.340;18.040;2024-03-17T07:05:55;0.00;99.90
12130;DHT22;6128;59.340;18.040;2024-03-17T07:08:23;-0.10;99.90
12130;DHT22;6128;59.340;18.040;2024-03-17T07:10:57;0.00;99.90
12130;DHT22;6128;59.340;18.040;2024-03-17T07:13:29;0.00;99.90
12130;DHT22;6128;59.340;18.040;2024-03-17T07:15:56;-0.10;99.90
12130;DHT22;6128;59.340;18.040;2024-03-17T07:18:25;-0.10;99.90
12130;DHT22;6128;59.340;18.040;2024-03-17T07:20:53;0.00;99.90
12130;DHT22;6128;59.340;18.040;2024-03-17T07:23:20;0.10;99.90
12130;DHT22;6128;59.340;18.040;2024-03-17T07:25:54;0.00;99.90
12130;DHT22;6128;59.340;18.040;2024-03-17T07:28:22;-0.10;99.90
12130;DHT22;6128;59.340;18.040;2024-03-17T07:30:51;-0.10;99.90
12130;DHT22;6128;59.340;18.040;2024-03-17T07:33:19;-0.10;99.90
12130;DHT22;6128;59.340;18.040;2024-03-17T07:35:50;-0.10;99.90
12130;DHT22;6128;59.340;18.040;2024-03-17T07:38:18;0.00;99.90
12130;DHT22;6128;59.340;18.040;2024-03-17T07:40:56;0.20;99.90
12130;DHT22;6128;59.340;18.040;2024-03-17T07:43:23;0.20;99.90
12130;DHT22;6128;59.340;18.040;2024-03-17T07:45:59;0.20;99.90
12130;DHT22;6128;59.340;18.040;2024-03-17T07:48:26;0.40;99.90
12130;DHT22;6128;59.340;18.040;2024-03-17T07:50:55;0.50;99.90
12130;DHT22;6128;59.340;18.040;2024-03-17T07:53:22;0.60;99.90
12130;DHT22;6128;59.340;18.040;2024-03-17T07:55:57;0.60;99.90
12130;DHT22;6128;59.340;18.040;2024-03-17T07:58:25;0.30;99.90
12130;DHT22;6128;59.340;18.040;2024-03-17T08:00:53;0.30;99.90
12130;DHT22;6128;59.340;18.040;2024-03-17T08:03:26;0.30;99.90
12130;DHT22;6128;59.340;18.040;2024-03-17T08:05:54;0.30;99.90
12130;DHT22;6128;59.340;18.040;2024-03-17T08:08:24;0.40;99.90
12130;DHT22;6128;59.340;18.040;2024-03-17T08:10:52;0.40;99.90
12130;DHT22;6128;59.340;18.040;2024-03-17T08:13:19;0.30;99.90
12130;DHT22;6128;59.340;18.040;2024-03-17T08:15:55;0.30;99.90
12130;DHT22;6128;59.340;18.040;2024-03-17T08:18:23;0.50;99.90
12130;DHT22;6128;59.340;18.040;2024-03-17T08:20:51;0.80;99.90
12130;DHT22;6128;59.340;18.040;2024-03-17T08:23:19;0.90;99.90
12130;DHT22;6128;59.340;18.040;2024-03-17T08:25:52;1.00;99.90
12130;DHT22;6128;59.340;18.040;2024-03-17T08:28:19;1.10;99.90
12130;DHT22;6128;59.340;18.040;2024-03-17T08:30:51;1.00;99.90
12130;DHT22;6128;59.340;18.040;2024-03-17T08:33:19;1.00;99.90
12130;DHT22;6128;59.340;18.040;2024-03-17T08:35:57;1.50;99.90
12130;DHT22;6128;59.340;18.040;2024-03-17T08:38:24;2.00;99.90
12130;DHT22;6128;59.340;18.040;2024-03-17T08:40:53;1.70;99.90
12130;DHT22;6128;59.340;18.040;2024-03-17T08:43:21;1.80;99.90
12130;DHT22;6128;59.340;18.040;2024-03-17T08:45:54;1.80;99.90
12130;DHT22;6128;59.340;18.040;2024-03-17T08:48:24;2.00;99.90
12130;DHT22;6128;59.340;18.040;2024-03-17T08:50:53;2.00;99.90
12130;DHT22;6128;59.340;18.040;2024-03-17T08:53:20;2.10;99.90
12130;DHT22;6128;59.340;18.040;2024-03-17T08:55:48;2.00;99.90
12130;DHT22;6128;59.340;18.040;2024-03-17T08:58:15;1.80;99.90
12130;DHT22;6128;59.340;18.040;2024-03-17T09:00:43;1.90;99.90
12130;DHT22;6128;59.340;18.040;2024-03-17T09:03:11;2.10;99.90
12130;DHT22;6128;59.340;18.040;2024-03-17T09:05:40;1.70;99.90
12130;DHT22;6128;59.340;18.040;2024-03-17T09:08:15;2.00;99.90
12130;DHT22;6128;59.340;18.040;2024-03-17T09:10:43;2.30;99.90
12130;DHT22;6128;59.340;18.040;2024-03-17T09:13:13;2.00;99.90
12130;DHT22;6128;59.340;18.040;2024-03-17T09:15:41;1.70;99.90
12130;DHT22;6128;59.340;18.040;2024-03-17T09:18:16;2.10;99.90
12130;DHT22;6128;59.340;18.040;2024-03-17T09:20:43;2.00;99.90
12130;DHT22;6128;59.340;18.040;2024-03-17T09:23:13;1.40;99.90
12130;DHT22;6128;59.340;18.040;2024-03-17T09:25:41;1.60;99.90
12130;DHT22;6128;59.340;18.040;2024-03-17T09:28:08;1.40;99.90
12130;DHT22;6128;59.340;18.040;2024-03-17T09:30:35;1.00;99.90
12130;DHT22;6128;59.340;18.040;2024-03-17T09:35:30;0.60;99.90
12130;DHT22;6128;59.340;18.040;2024-03-17T09:37:57;0.50;99.90
12130;DHT22;6128;59.340;18.040;2024-03-17T09:40:26;0.40;99.90
12130;DHT22;6128;59.340;18.040;2024-03-17T09:42:53;0.60;99.90
12130;DHT22;6128;59.340;18.040;2024-03-17T09:45:20;0.70;99.90
12130;DHT22;6128;59.340;18.040;2024-03-17T09:47:48;0.80;99.90
12130;DHT22;6128;59.340;18.040;2024-03-17T09:50:15;0.90;99.90
12130;DHT22;6128;59.340;18.040;2024-03-17T09:52:45;0.80;99.90
12130;DHT22;6128;59.340;18.040;2024-03-17T09:55:16;0.80;99.90
12130;DHT22;6128;59.340;18.040;2024-03-17T09:57:45;1.10;99.90
12130;DHT22;6128;59.340;18.040;2024-03-17T10:00:14;1.10;99.90
12130;DHT22;6128;59.340;18.040;2024-03-17T10:02:42;1.30;99.90
12130;DHT22;6128;59.340;18.040;2024-03-17T10:05:21;1.30;99.90
12130;DHT22;6128;59.340;18.040;2024-03-17T10:07:48;1.40;99.90
12130;DHT22;6128;59.340;18.040;2024-03-17T10:10:16;1.50;99.90
12130;DHT22;6128;59.340;18.040;2024-03-17T10:12:49;1.50;99.90
12130;DHT22;6128;59.340;18.040;2024-03-17T10:15:17;1.50;99.90
12130;DHT22;6128;59.340;18.040;2024-03-17T10:17:44;1.70;99.90
12130;DHT22;6128;59.340;18.040;2024-03-17T10:20:15;1.60;99.90
12130;DHT22;6128;59.340;18.040;2024-03-17T10:23:02;1.60;99.90
12130;DHT22;6128;59.340;18.040;2024-03-17T10:25:32;1.70;99.90
12130;DHT22;6128;59.340;18.040;2024-03-17T10:28:01;1.70;99.90
12130;DHT22;6128;59.340;18.040;2024-03-17T10:30:28;1.50;99.90
12130;DHT22;6128;59.340;18.040;2024-03-17T10:32:57;1.60;99.90
12130;DHT22;6128;59.340;18.040;2024-03-17T10:35:29;1.70;99.90
12130;DHT22;6128;59.340;18.040;2024-03-17T10:37:58;1.70;99.90
12130;DHT22;6128;59.340;18.040;2024-03-17T10:40:26;1.70;99.90
12130;DHT22;6128;59.340;18.040;2024-03-17T10:42:53;1.70;99.90
12130;DHT22;6128;59.340;18.040;2024-03-17T10:45:25;1.50;99.90
12130;DHT22;6128;59.340;18.040;2024-03-17T10:47:52;1.50;99.90
12130;DHT22;6128;59.340;18.040;2024-03-17T10:50:21;1.40;99.90
12130;DHT22;6128;59.340;18.040;2024-03-17T10:52:50;1.50;99.90
12130;DHT22;6128;59.340;18.040;2024-03-17T10:55:22;1.30;99.90
12130;DHT22;6128;59.340;18.040;2024-03-17T10:57:50;1.40;99.90
12130;DHT22;6128;59.340;18.040;2024-03-17T11:00:19;1.30;99.90
12130;DHT22;6128;59.340;18.040;2024-03-17T11:02:49;1.30;99.90
12130;DHT22;6128;59.340;18.040;2024-03-17T11:05:20;1.20;99.90
12130;DHT22;6128;59.340;18.040;2024-03-17T11:07:49;1.30;99.90
12130;DHT22;6128;59.340;18.040;2024-03-17T11:10:19;1.50;99.90
12130;DHT22;6128;59.340;18.040;2024-03-17T11:12:49;1.30;99.90
12130;DHT22;6128;59.340;18.040;2024-03-17T11:15:38;1.30;99.90
12130;DHT22;6128;59.340;18.040;2024-03-17T11:21:21;1.40;99.90
12130;DHT22;6128;59.340;18.040;2024-03-17T11:23:58;1.40;99.90
12130;DHT22;6128;59.340;18.040;2024-03-17T11:26:30;1.50;99.90
12130;DHT22;6128;59.340;18.040;2024-03-17T11:28:58;1.60;99.90
12130;DHT22;6128;59.340;18.040;2024-03-17T11:31:50;1.30;99.90
12130;DHT22;6128;59.340;18.040;2024-03-17T11:34:32;1.30;99.90
12130;DHT22;6128;59.340;18.040;2024-03-17T11:37:01;1.30;99.90
12130;DHT22;6128;59.340;18.040;2024-03-17T11:39:53;1.20;99.90
12130;DHT22;6128;59.340;18.040;2024-03-17T11:42:22;1.20;99.90
12130;DHT22;6128;59.340;18.040;2024-03-17T11:44:57;1.20;99.90
12130;DHT22;6128;59.340;18.040;2024-03-17T11:47:36;1.00;99.90
12130;DHT22;6128;59.340;18.040;2024-03-17T11:50:05;1.10;99.90
12130;DHT22;6128;59.340;18.040;2024-03-17T11:52:32;1.10;99.90
12130;DHT22;6128;59.340;18.040;2024-03-17T11:54:59;1.20;99.90
12130;DHT22;6128;59.340;18.040;2024-03-17T11:57:27;1.40;99.90
12130;DHT22;6128;59.340;18.040;2024-03-17T11:59:54;1.60;99.90
12130;DHT22;6128;59.340;18.040;2024-03-17T12:02:23;1.60;99.90
12130;DHT22;6128;59.340;18.040;2024-03-17T12:04:52;1.60;99.90
12130;DHT22;6128;59.340;18.040;2024-03-17T12:07:21;1.60;99.90
12130;DHT22;6128;59.340;18.040;2024-03-17T12:09:50;1.50;99.90
12130;DHT22;6128;59.340;18.040;2024-03-17T12:12:20;1.50;99.90
12130;DHT22;6128;59.340;18.040;2024-03-17T12:14:47;1.60;99.90
12130;DHT22;6128;59.340;18.040;2024-03-17T12:17:20;1.40;99.90
12130;DHT22;6128;59.340;18.040;2024-03-17T12:19:47;1.20;99.90
12130;DHT22;6128;59.340;18.040;2024-03-17T12:22:17;1.10;99.90
12130;DHT22;6128;59.340;18.040;2024-03-17T12:24:44;1.20;99.90
12130;DHT22;6128;59.340;18.040;2024-03-17T12:27:18;1.20;99.90
12130;DHT22;6128;59.340;18.040;2024-03-17T12:29:44;1.00;99.80
12130;DHT22;6128;59.340;18.040;2024-03-17T12:32:14;1.10;99.80
12130;DHT22;6128;59.340;18.040;2024-03-17T12:34:42;1.10;99.80
12130;DHT22;6128;59.340;18.040;2024-03-17T12:37:16;1.20;99.80
12130;DHT22;6128;59.340;18.040;2024-03-17T12:39:42;1.10;99.80
12130;DHT22;6128;59.340;18.040;2024-03-17T12:42:10;1.20;99.80
12130;DHT22;6128;59.340;18.040;2024-03-17T12:44:39;1.40;99.90
12130;DHT22;6128;59.340;18.040;2024-03-17T12:47:14;1.40;99.90
12130;DHT22;6128;59.340;18.040;2024-03-17T12:49:45;1.40;99.90
12130;DHT22;6128;59.340;18.040;2024-03-17T12:52:17;1.50;99.90
12130;DHT22;6128;59.340;18.040;2024-03-17T12:54:44;1.40;99.90
12130;DHT22;6128;59.340;18.040;2024-03-17T12:57:20;1.40;99.90
12130;DHT22;6128;59.340;18.040;2024-03-17T13:00:18;1.40;99.90
12130;DHT22;6128;59.340;18.040;2024-03-17T13:02:59;1.30;99.90
12130;DHT22;6128;59.340;18.040;2024-03-17T13:05:27;1.50;99.90
12130;DHT22;6128;59.340;18.040;2024-03-17T13:07:54;1.50;99.90
12130;DHT22;6128;59.340;18.040;2024-03-17T13:10:23;1.40;99.70
12130;DHT22;6128;59.340;18.040;2024-03-17T13:12:58;1.30;99.60
12130;DHT22;6128;59.340;18.040;2024-03-17T13:15:28;1.40;99.60
12130;DHT22;6128;59.340;18.040;2024-03-17T13:17:57;1.20;99.60
12130;DHT22;6128;59.340;18.040;2024-03-17T13:20:24;1.20;99.50
12130;DHT22;6128;59.340;18.040;2024-03-17T13:22:52;1.00;99.30
12130;DHT22;6128;59.340;18.040;2024-03-17T13:25:21;0.90;99.30
12130;DHT22;6128;59.340;18.040;2024-03-17T13:27:50;0.90;99.40
12130;DHT22;6128;59.340;18.040;2024-03-17T13:30:18;1.00;99.40
12130;DHT22;6128;59.340;18.040;2024-03-17T13:32:49;0.90;99.30
12130;DHT22;6128;59.340;18.040;2024-03-17T13:35:22;0.90;99.40
12130;DHT22;6128;59.340;18.040;2024-03-17T13:37:51;1.00;99.60
12130;DHT22;6128;59.340;18.040;2024-03-17T13:40:20;1.10;99.70
12130;DHT22;6128;59.340;18.040;2024-03-17T13:42:49;1.00;99.80
12130;DHT22;6128;59.340;18.040;2024-03-17T13:45:17;1.00;99.80
12130;DHT22;6128;59.340;18.040;2024-03-17T13:47:52;0.90;99.60
12130;DHT22;6128;59.340;18.040;2024-03-17T13:50:20;0.90;99.50
12130;DHT22;6128;59.340;18.040;2024-03-17T13:52:47;0.90;99.40
12130;DHT22;6128;59.340;18.040;2024-03-17T13:55:15;0.90;99.30
12130;DHT22;6128;59.340;18.040;2024-03-17T13:57:44;0.70;99.00
12130;DHT22;6128;59.340;18.040;2024-03-17T14:00:13;0.70;98.70
12130;DHT22;6128;59.340;18.040;2024-03-17T14:02:42;0.70;98.70
12130;DHT22;6128;59.340;18.040;2024-03-17T14:05:12;0.70;98.50
12130;DHT22;6128;59.340;18.040;2024-03-17T14:07:39;0.80;98.50
12130;DHT22;6128;59.340;18.040;2024-03-17T14:10:08;0.80;98.50
12130;DHT22;6128;59.340;18.040;2024-03-17T14:12:35;0.70;98.70
12130;DHT22;6128;59.340;18.040;2024-03-17T14:15:04;0.90;99.00
12130;DHT22;6128;59.340;18.040;2024-03-17T14:17:34;0.90;99.10
12130;DHT22;6128;59.340;18.040;2024-03-17T14:20:02;0.90;99.30
12130;DHT22;6128;59.340;18.040;2024-03-17T14:22:32;0.90;99.20
12130;DHT22;6128;59.340;18.040;2024-03-17T14:24:59;0.80;98.90
12130;DHT22;6128;59.340;18.040;2024-03-17T14:27:26;0.90;99.00
12130;DHT22;6128;59.340;18.040;2024-03-17T14:29:53;0.90;98.90
12130;DHT22;6128;59.340;18.040;2024-03-17T14:32:21;0.90;98.70
12130;DHT22;6128;59.340;18.040;2024-03-17T14:34:48;0.70;98.50
12130;DHT22;6128;59.340;18.040;2024-03-17T14:37:15;0.70;98.40
12130;DHT22;6128;59.340;18.040;2024-03-17T14:39:43;0.70;98.30
12130;DHT22;6128;59.340;18.040;2024-03-17T14:42:11;0.70;98.00
12130;DHT22;6128;59.340;18.040;2024-03-17T14:44:38;0.60;97.80
12130;DHT22;6128;59.340;18.040;2024-03-17T14:47:05;0.60;97.80
12130;DHT22;6128;59.340;18.040;2024-03-17T14:49:33;0.70;97.90
12130;DHT22;6128;59.340;18.040;2024-03-17T14:52:00;0.70;97.90
12130;DHT22;6128;59.340;18.040;2024-03-17T14:54:27;0.50;98.10
12130;DHT22;6128;59.340;18.040;2024-03-17T14:56:56;0.60;98.20
12130;DHT22;6128;59.340;18.040;2024-03-17T14:59:23;0.60;98.40
12130;DHT22;6128;59.340;18.040;2024-03-17T15:01:50;0.60;98.50
12130;DHT22;6128;59.340;18.040;2024-03-17T15:04:17;0.60;98.60
12130;DHT22;6128;59.340;18.040;2024-03-17T15:06:44;0.70;98.80
12130;DHT22;6128;59.340;18.040;2024-03-17T15:09:11;0.60;99.00
12130;DHT22;6128;59.340;18.040;2024-03-17T15:11:39;0.40;98.80
12130;DHT22;6128;59.340;18.040;2024-03-17T15:14:08;0.20;98.40
12130;DHT22;6128;59.340;18.040;2024-03-17T15:16:37;0.10;98.10
12130;DHT22;6128;59.340;18.040;2024-03-17T15:19:04;0.10;97.60
12130;DHT22;6128;59.340;18.040;2024-03-17T15:21:32;0.10;97.20
12130;DHT22;6128;59.340;18.040;2024-03-17T15:24:00;0.10;97.00
12130;DHT22;6128;59.340;18.040;2024-03-17T15:26:28;0.20;96.70
12130;DHT22;6128;59.340;18.040;2024-03-17T15:28:55;0.20;96.70
12130;DHT22;6128;59.340;18.040;2024-03-17T15:31:25;0.10;96.70
12130;DHT22;6128;59.340;18.040;2024-03-17T15:33:52;0.10;96.60
12130;DHT22;6128;59.340;18.040;2024-03-17T15:36:19;0.10;96.50
12130;DHT22;6128;59.340;18.040;2024-03-17T15:38:47;0.00;96.50
12130;DHT22;6128;59.340;18.040;2024-03-17T15:41:14;0.00;96.50
12130;DHT22;6128;59.340;18.040;2024-03-17T15:43:42;0.00;96.50
12130;DHT22;6128;59.340;18.040;2024-03-17T15:46:14;0.00;96.40
12130;DHT22;6128;59.340;18.040;2024-03-17T15:48:45;-0.10;96.40
12130;DHT22;6128;59.340;18.040;2024-03-17T15:51:12;-0.20;96.50
12130;DHT22;6128;59.340;18.040;2024-03-17T15:53:40;-0.20;96.60
12130;DHT22;6128;59.340;18.040;2024-03-17T15:56:07;-0.30;96.40
12130;DHT22;6128;59.340;18.040;2024-03-17T15:58:35;-0.30;96.40